Rosholt, Wisconsin
Current Conditions -  °F | °C
As of 6:55 AM on Wednesday 22 Oct 2014 (Local Time) from KSTE Reporting Station
Clear Clear  
Wind Chill: -4°   Ceiling: Unl
Heat Index: -4°   Visibility: 10mi
Dew Point: -5°   Wind: 0mph
Humidity: 96%   Direction: NA
Pressure: 30.35"   Gusts: NA
Location:  44.63°N, 89.31°W
Report Text: KSTE 221155Z AUTO 00000KT 10SM CLR M04/M05 A3035 RMK AO2 P0001 60003 70011 T10451050 11021 21050
Loading
Personal Weather Stations






























Interactive Weather Map
Tropical Storm Tracking
New forecast layout! Learn more

10-Day Weather Forecast

Advertisements
Track Severe Weather on mobile